Aeroporto :
LOGIN :

Iscrizione | Disclaimer

   EN    FR    IT 

 










Sommario :    VFR   VFR Marginale   IFR   IFR Intensivo   IFR Molto Intensivo
Visibilità : 
Base nubi : 
>= 8 km
>= 3000ft
5 / 8 km
1000 / 3000 ft
1500m / 5 km
500 / 1000 ft
800 / 1500m
200 / 500 ft
< 800m
< 200 ft
Simboli :   Temporali  Nebbia  Neve Forte  Precipitazioni Forti  Vento > 20 kt
SIGMETs :   Varie  Temporali  Ghiacco  Turbolenza  Onda orograficha  Ceneri Vulcaniche






- Altitudine del aeroporto : 26 ft
- Codice IATA : GLA


EGPF - Glasgow

ULTIMO METAR :
  • 171220Z AUTO 23020G30KT 9999 -RA FEW023/// BKN031/// BKN044/// //////CB 07/05 Q0995

METARs OBSOLETI :
  • 171150Z AUTO 23018KT 9999 -RA SCT024/// SCT040/// //////CB 06/04 Q0994 RERA
  • 171120Z AUTO 24020G34KT 5000 -RA SCT025/// BKN034/// BKN041/// //////TCU 07/05 Q0994
  • 171050Z AUTO 24022KT 4300 -RA FEW015/// SCT028/// BKN036/// //////CB 07/04 Q0993
  • 171020Z AUTO 24016KT 9999 FEW039/// SCT047/// //////TCU 08/05 Q0992
  • 170950Z AUTO 23017KT 9999 FEW049/// //////TCU 07/04 Q0992

TAF TAF EGPF
Valido dal 17 a 12 ore il 18 a 12 ore UTC


171058Z 1712/1812 25017KT 9999 SCT025
TEMPO 1712/1812 26022G35KT 6000 SHRA BKN014
PROB40
TEMPO 1716/1721 3000 +SHRA BKN009CB
ATIS : +44 141 887 7449



MetMap, La meteo Aeronautica in un colpo d'occhio ! - Copyright ORBIFLY Dicembre 2007 - Disclaimer

ORBIFLY MET'MAP TEAM :

Programmazione e sviluppo : Alexandra Zaïnal
Concezione : Baudouin d'Aumeries
Aiuto per la programmazione : Marc-Olivier Méhu
Supporto tecnico e logistico : Manuel Goepfert
Aiuto per la traduzione : Arnaldo La Scala

Contatto : metmap@orbifly.com




FONTI E CREDITI :

   NOAA